Time;durP1;ratioP1;P1;durP2;ratioP2;P2;SDS_P1;SDS_P2;PMS_P1;PMS_P2;Temp;Humidity;BMP_temperature;BMP_pressure;BME280_temperature;BME280_humidity;BME280_pressure;Samples;Min_cycle;Max_cycle;Signal;HPM_P1;HPM_P2
2023/11/01 00:02:11;;;;;;;13.32;8.82;;;13.90;90.80;;;;;;5001798;28;20036;-78
2023/11/01 00:04:37;;;;;;;16.70;8.68;;;14.00;90.80;;;;;;4999024;28;20038;-78
2023/11/01 00:07:03;;;;;;;10.48;7.78;;;13.90;90.80;;;;;;5017327;28;20040;-79
2023/11/01 00:09:29;;;;;;;13.13;8.32;;;13.90;90.80;;;;;;4988143;28;20484;-79
2023/11/01 00:11:55;;;;;;;12.30;8.27;;;14.00;90.80;;;;;;5004933;28;20030;-79
2023/11/01 00:14:21;;;;;;;11.30;8.63;;;13.90;90.90;;;;;;5000421;28;20026;-80
2023/11/01 00:16:47;;;;;;;17.95;8.82;;;13.90;90.80;;;;;;5000524;28;20121;-80
2023/11/01 00:19:13;;;;;;;10.38;8.27;;;13.90;90.80;;;;;;4999794;28;20089;-79
2023/11/01 00:21:39;;;;;;;12.10;8.55;;;13.90;90.80;;;;;;5005277;28;20029;-79
2023/11/01 00:24:07;;;;;;;13.57;8.15;;;13.90;90.90;;;;;;5004096;28;20487;-79
2023/11/01 00:26:33;;;;;;;10.85;8.00;;;13.90;90.90;;;;;;5001328;28;20144;-79
2023/11/01 00:28:59;;;;;;;14.40;9.20;;;13.90;90.80;;;;;;5019629;28;20132;-78
2023/11/01 00:31:25;;;;;;;11.65;8.48;;;13.90;90.80;;;;;;5002594;28;20207;-78
2023/11/01 00:33:51;;;;;;;10.82;7.75;;;13.90;90.80;;;;;;5003108;28;20079;-77
2023/11/01 00:36:17;;;;;;;13.85;8.70;;;13.90;90.90;;;;;;5002906;28;20041;-78
2023/11/01 00:38:43;;;;;;;11.75;8.75;;;13.90;90.90;;;;;;5021275;28;20814;-78
2023/11/01 00:41:09;;;;;;;10.20;8.00;;;13.90;90.90;;;;;;5022713;28;20067;-78
2023/11/01 00:43:35;;;;;;;11.25;8.23;;;13.90;90.90;;;;;;5022859;28;20384;-77
2023/11/01 00:46:01;;;;;;;10.60;7.90;;;13.90;90.90;;;;;;5005701;28;20030;-77
2023/11/01 00:48:27;;;;;;;11.68;8.30;;;13.90;90.90;;;;;;5024660;28;20037;-78
2023/11/01 00:50:53;;;;;;;11.05;8.25;;;13.90;90.90;;;;;;5001069;28;20041;-78
2023/11/01 00:53:19;;;;;;;12.43;8.65;;;13.90;91.00;;;;;;5021758;28;20137;-78
2023/11/01 00:55:45;;;;;;;13.48;8.63;;;13.90;91.00;;;;;;5024298;28;20077;-77
2023/11/01 00:58:11;;;;;;;10.27;8.20;;;13.90;91.00;;;;;;5020373;28;20034;-77
2023/11/01 01:00:37;;;;;;;16.45;8.82;;;13.90;91.00;;;;;;5021656;28;20068;-76
2023/11/01 01:03:03;;;;;;;13.07;8.35;;;13.90;91.00;;;;;;5002849;28;20030;-77
2023/11/01 01:05:29;;;;;;;11.82;8.20;;;13.90;91.00;;;;;;5023050;28;20037;-76
2023/11/01 01:07:57;;;;;;;11.10;7.55;;;13.90;90.90;;;;;;5005011;28;20034;-76
2023/11/01 01:10:23;;;;;;;11.32;8.57;;;13.90;91.00;;;;;;5021418;28;20033;-76
2023/11/01 01:12:49;;;;;;;10.95;7.50;;;13.90;91.00;;;;;;5027032;28;20040;-76
2023/11/01 01:15:15;;;;;;;9.65;7.57;;;13.90;91.00;;;;;;5005597;28;20152;-77
2023/11/01 01:17:41;;;;;;;10.40;7.53;;;13.90;91.00;;;;;;5025195;28;20025;-77
2023/11/01 01:20:07;;;;;;;11.65;7.75;;;13.90;91.10;;;;;;5030107;28;20527;-77
2023/11/01 01:22:33;;;;;;;10.95;8.25;;;13.90;91.20;;;;;;5005134;28;20048;-77
2023/11/01 01:24:59;;;;;;;13.05;8.02;;;13.90;91.10;;;;;;5028562;28;20026;-78
2023/11/01 01:27:26;;;;;;;9.77;7.65;;;13.90;91.20;;;;;;4989244;28;20030;-77
2023/11/01 01:29:52;;;;;;;12.50;7.90;;;13.90;91.30;;;;;;5006320;28;20361;-77
2023/11/01 01:32:18;;;;;;;9.70;7.03;;;13.90;91.30;;;;;;5020110;28;20068;-77
2023/11/01 01:34:44;;;;;;;10.63;7.30;;;13.90;91.30;;;;;;5000796;28;20034;-77
2023/11/01 01:37:09;;;;;;;9.75;7.57;;;13.90;91.30;;;;;;5022785;28;20033;-79
2023/11/01 01:39:35;;;;;;;11.18;8.13;;;13.90;91.40;;;;;;5006887;28;20133;-79
2023/11/01 01:42:01;;;;;;;12.38;8.27;;;13.90;91.50;;;;;;5025516;28;20045;-79
2023/11/01 01:44:27;;;;;;;13.05;8.27;;;13.90;91.50;;;;;;5024827;28;20033;-78
2023/11/01 01:46:56;;;;;;;11.50;6.75;;;13.90;91.50;;;;;;5005243;28;20034;-78
2023/11/01 01:49:22;;;;;;;10.15;7.40;;;13.90;91.60;;;;;;5021841;28;20041;-77
2023/11/01 01:51:49;;;;;;;11.95;7.03;;;13.90;91.70;;;;;;5005075;28;20130;-78
2023/11/01 01:54:15;;;;;;;10.77;7.03;;;13.90;91.80;;;;;;5021744;28;20037;-78
2023/11/01 01:56:41;;;;;;;10.15;7.13;;;13.90;91.80;;;;;;5005948;28;20041;-77
2023/11/01 01:59:07;;;;;;;9.80;7.10;;;13.90;91.80;;;;;;5022617;28;20067;-78
2023/11/01 02:01:34;;;;;;;9.95;6.75;;;13.90;91.90;;;;;;5003554;28;20049;-76
2023/11/01 02:04:01;;;;;;;12.52;7.03;;;13.90;92.00;;;;;;5008732;28;20128;-76
2023/11/01 02:06:27;;;;;;;10.30;6.82;;;14.00;92.00;;;;;;5022227;28;20559;-76
2023/11/01 02:08:53;;;;;;;9.63;7.00;;;14.00;91.90;;;;;;5021456;28;20144;-76
2023/11/01 02:11:19;;;;;;;11.73;7.07;;;14.00;92.00;;;;;;5021065;28;20065;-77
2023/11/01 02:13:45;;;;;;;10.82;6.90;;;14.00;92.10;;;;;;5022517;28;20053;-76
2023/11/01 02:16:11;;;;;;;13.10;7.55;;;14.00;92.00;;;;;;5020852;28;20030;-77
2023/11/01 02:18:38;;;;;;;12.05;6.97;;;14.00;92.00;;;;;;5021772;28;20084;-77
2023/11/01 02:21:05;;;;;;;10.25;6.63;;;14.00;92.00;;;;;;5024365;28;20184;-76
2023/11/01 02:23:32;;;;;;;12.02;7.15;;;14.00;92.00;;;;;;5004563;28;20131;-77
2023/11/01 02:25:59;;;;;;;12.90;7.15;;;14.00;92.00;;;;;;5021553;28;20401;-77
2023/11/01 02:28:25;;;;;;;11.27;6.85;;;14.10;92.10;;;;;;5028629;28;20040;-78
2023/11/01 02:30:51;;;;;;;11.35;6.95;;;14.10;92.10;;;;;;5017770;28;20026;-78
2023/11/01 02:33:17;;;;;;;10.13;6.85;;;14.10;92.10;;;;;;5021384;28;20440;-78
2023/11/01 02:35:43;;;;;;;9.60;6.65;;;14.10;92.00;;;;;;5021664;28;20523;-78
2023/11/01 02:38:12;;;;;;;10.00;6.82;;;14.10;92.00;;;;;;5019976;28;20040;-77
2023/11/01 02:40:37;;;;;;;10.13;6.28;;;14.10;92.10;;;;;;5018929;28;20046;-77
2023/11/01 02:43:03;;;;;;;12.48;7.68;;;14.10;92.10;;;;;;5022209;28;20038;-77
2023/11/01 02:45:29;;;;;;;10.10;6.90;;;14.10;92.00;;;;;;5004817;28;20451;-78
2023/11/01 02:47:56;;;;;;;11.82;6.70;;;14.10;92.00;;;;;;5021903;28;20328;-77
2023/11/01 02:50:22;;;;;;;11.45;6.68;;;14.10;92.00;;;;;;5023575;28;20069;-76
2023/11/01 02:52:49;;;;;;;11.02;6.47;;;14.20;92.00;;;;;;5022619;28;20187;-77
2023/11/01 02:55:16;;;;;;;9.80;7.05;;;14.10;91.90;;;;;;5004151;28;20445;-77
2023/11/01 02:57:43;;;;;;;9.38;6.63;;;14.20;92.00;;;;;;5021289;28;20022;-77
2023/11/01 03:00:18;;;;;;;10.55;6.85;;;14.20;92.00;;;;;;5020489;28;20497;-76
2023/11/01 03:02:48;;;;;;;12.15;6.90;;;14.20;92.00;;;;;;5022608;28;20120;-78
2023/11/01 03:05:15;;;;;;;9.73;6.97;;;14.20;92.00;;;;;;5020574;28;20041;-77
2023/11/01 03:07:41;;;;;;;9.57;6.93;;;14.20;92.00;;;;;;5007701;28;20042;-77
2023/11/01 03:10:11;;;;;;;12.98;7.53;;;14.20;92.00;;;;;;5023894;28;20052;-77
2023/11/01 03:12:38;;;;;;;10.15;6.95;;;14.20;91.90;;;;;;5020924;28;20091;-75
2023/11/01 03:15:07;;;;;;;9.40;6.57;;;14.20;92.00;;;;;;5019602;28;20033;-75
2023/11/01 03:17:36;;;;;;;8.32;6.03;;;14.20;92.00;;;;;;5021405;28;20042;-77
2023/11/01 03:20:07;;;;;;;11.15;6.22;;;14.20;92.00;;;;;;5021233;28;20025;-78
2023/11/01 03:22:33;;;;;;;9.40;6.82;;;14.20;92.00;;;;;;5021435;28;20522;-78
2023/11/01 03:24:59;;;;;;;9.27;6.72;;;14.20;92.00;;;;;;5003304;28;20033;-77
2023/11/01 03:27:25;;;;;;;9.63;6.47;;;14.20;92.00;;;;;;5020025;28;20037;-78
2023/11/01 03:29:52;;;;;;;11.52;7.07;;;14.20;92.10;;;;;;5005580;28;20053;-78
2023/11/01 03:32:19;;;;;;;10.23;6.82;;;14.30;92.00;;;;;;5020890;28;20716;-78
2023/11/01 03:34:45;;;;;;;10.88;6.82;;;14.20;91.90;;;;;;5004026;28;20072;-78
2023/11/01 03:37:11;;;;;;;9.38;6.70;;;14.30;92.00;;;;;;5020215;28;20033;-79
2023/11/01 03:39:37;;;;;;;6.90;6.07;;;14.30;92.00;;;;;;5021384;28;20029;-77
2023/11/01 03:42:04;;;;;;;9.70;6.18;;;14.30;91.90;;;;;;5019762;28;20499;-77
2023/11/01 03:44:33;;;;;;;9.40;6.95;;;14.30;92.10;;;;;;5020809;28;20041;-76
2023/11/01 03:47:00;;;;;;;11.02;6.78;;;14.30;92.00;;;;;;5020928;28;20121;-75
2023/11/01 03:49:29;;;;;;;13.70;6.75;;;14.30;92.00;;;;;;5022586;28;20038;-74
2023/11/01 03:52:00;;;;;;;9.23;6.43;;;14.30;92.10;;;;;;5020488;28;20076;-76
2023/11/01 03:54:25;;;;;;;11.23;6.53;;;14.30;92.10;;;;;;5020415;28;20052;-76
2023/11/01 03:56:52;;;;;;;11.73;6.88;;;14.40;92.00;;;;;;5020763;28;20033;-76
2023/11/01 03:59:18;;;;;;;8.52;5.97;;;14.30;92.00;;;;;;5021486;28;20038;-76
2023/11/01 04:01:44;;;;;;;10.10;6.50;;;14.30;91.90;;;;;;5021531;28;20056;-75
2023/11/01 04:04:10;;;;;;;9.32;6.40;;;14.40;92.10;;;;;;5019958;28;20062;-77
2023/11/01 04:06:40;;;;;;;9.85;6.43;;;14.40;91.90;;;;;;5019158;28;20084;-76
2023/11/01 04:09:10;;;;;;;11.32;6.93;;;14.30;92.00;;;;;;5018371;28;20064;-76
2023/11/01 04:11:36;;;;;;;12.05;6.70;;;14.40;92.00;;;;;;5003267;28;20038;-76
2023/11/01 04:14:03;;;;;;;9.63;6.75;;;14.40;92.00;;;;;;5020084;28;20038;-78
2023/11/01 04:16:30;;;;;;;9.20;6.25;;;14.40;92.00;;;;;;5019131;28;20037;-77
2023/11/01 04:18:59;;;;;;;10.63;6.90;;;14.40;91.90;;;;;;5021344;28;20061;-78
2023/11/01 04:21:26;;;;;;;13.43;6.45;;;14.40;91.80;;;;;;5019830;28;20048;-77
2023/11/01 04:23:52;;;;;;;11.40;7.15;;;14.40;91.90;;;;;;5005954;28;20045;-76
2023/11/01 04:26:21;;;;;;;11.13;7.13;;;14.40;91.80;;;;;;5003207;28;20041;-76
2023/11/01 04:28:47;;;;;;;9.35;6.60;;;14.40;91.80;;;;;;5019643;28;20069;-75
2023/11/01 04:31:15;;;;;;;11.32;6.80;;;14.40;91.80;;;;;;5018560;28;20484;-75
2023/11/01 04:33:41;;;;;;;10.55;6.88;;;14.40;91.80;;;;;;5019487;28;20400;-76
2023/11/01 04:36:08;;;;;;;11.95;7.05;;;14.40;91.80;;;;;;5020564;28;20376;-74
2023/11/01 04:38:37;;;;;;;10.85;6.35;;;14.40;91.80;;;;;;5022315;28;20080;-75
2023/11/01 04:41:09;;;;;;;9.88;6.93;;;14.40;91.80;;;;;;5011069;28;20030;-74
2023/11/01 04:43:36;;;;;;;9.25;6.97;;;14.40;91.80;;;;;;5023129;28;20376;-74
2023/11/01 04:46:03;;;;;;;10.93;7.20;;;14.40;91.90;;;;;;5022557;28;20076;-74
2023/11/01 04:48:29;;;;;;;11.10;6.15;;;14.40;91.80;;;;;;5007146;28;20042;-76
2023/11/01 04:50:56;;;;;;;12.25;6.95;;;14.50;91.80;;;;;;5022331;28;20084;-75
2023/11/01 04:53:22;;;;;;;11.93;7.05;;;14.50;91.80;;;;;;5021598;28;20431;-75
2023/11/01 04:55:50;;;;;;;12.63;6.95;;;14.50;91.80;;;;;;5006111;28;20483;-75
